Fairfield, IL

9:48 PM CDT on July 06, 2015 (GMT -0500)
Uptown | | Change Station
CLOSE
Current Station
Personal Weather Station
Location: Fairfield, IL
Elevation: 446 ft
Nearby Weather Stations
Active Advisory: Flood Warning

Elev 446 ft 38.38 °N, 88.36 °W | Updated 12 minutes ago

Clear
Clear
79.8 °F
Feels Like 84 °F
N
4.2
Wind Variable Wind from SW

Today
High -- | Low -- °F
--% Chance of Precip.
Yesterday
High -- | Low -- °F
Precip. -- in
5:35 AM 8:20 PM
Waning Gibbous, 69% visible
Pressure 29.96 in
Visibility 10.0 miles
Clouds Clear
Heat Index 84 °F
Dew Point 75 °F
Humidity 85%
Rainfall 0.00 in
Snow Depth Not available.
UV 0 out of 12
Pollen 3.90 out of 12
Air Quality Not available.
Flu Activity Not available.
METAR KFWC 070235Z AUTO 19005KT 10SM CLR 26/24 A2996 RMK AO1 T02590237

More Conditions Fewer Conditions

Pressure 29.96 in
Visibility 10.0 miles
Clouds Clear
Heat Index 84 °F
Dew Point 75 °F
Humidity 85%
Rainfall 0.00 in
Snow Depth Not available.
UV 0 out of 12
Pollen 3.90 out of 12
Air Quality Not available.
Flu Activity Not available.
METAR KFWC 070235Z AUTO 19005KT 10SM CLR 26/24 A2996 RMK AO1 T02590237

More Conditions Fewer Conditions

10-Day Weather Forecast

×

Almanac

Astronomy

Jul. 06, 2015 Rise Set
Actual Time
Civil Twilight
Nautical Twilight
Astronomical Twilight
Moon
Length of Visible Light
Length of Day
Tomorrow will be .
, % of the Moon is Illuminated

Today's Extremes

State Highs State Lows

Community

WunderPhotos

Upload Photos

1,835,701 photos uploaded!

WunderBlogs® & News

Nearby

Air Quality

  Air Quality AQ Index Pollutant
Not available.

Snow Depth

Station Depth Elevation

Earthquake Activity

City Distance Mag. Time & Date
Minimum magnitude displayed is 2.5.

Coastal Water Temperatures

Place Temperature

Stations

Nearby Weather Stations

Station Location Temp. Windchill Dew Point Humidity Wind Precip. Elev Updated Type
                   
Flood Warning
Statement as of 9:32 PM CDT on July 06, 2015

The Flood Warning continues for
the Little Wabash River at Carmi
* until Monday July 13.
* At 8:30 PM Monday the stage was 32.6 feet.
* Flood stage is 27.0 feet.
* Moderate flooding is occurring and moderate flooding is forecast.
* Forecast... the river will fall below flood stage Sunday evening.
* Impact... at 32.0 feet... flood waters flow up McHenry Slough and
areas near Route 1 and 14 in Carmi begin to flood.


Lat... Lon 3826 8816 3801 8828 3791 8812 3793 8808
      3804 8813 3825 8802